Time;durP1;ratioP1;P1;durP2;ratioP2;P2;SDS_P1;SDS_P2;PMS_P1;PMS_P2;Temp;Humidity;BMP_temperature;BMP_pressure;BME280_temperature;BME280_humidity;BME280_pressure;Samples;Min_cycle;Max_cycle;Signal;HPM_P1;HPM_P2
2021/08/26 00:00:58;;;;;;;1.38;1.27;;;15.20;99.90;;;;;;4950065;28;20221;-68
2021/08/26 00:06:14;;;;;;;1.20;1.00;;;15.10;99.90;;;;;;4954141;28;20236;-66
2021/08/26 00:08:40;;;;;;;2.35;1.73;;;15.10;99.90;;;;;;4951951;28;20205;-67
2021/08/26 00:11:05;;;;;;;1.73;1.42;;;15.10;99.90;;;;;;4960727;28;20232;-68
2021/08/26 00:13:31;;;;;;;1.42;1.30;;;15.10;99.90;;;;;;4955118;28;20276;-68
2021/08/26 00:15:59;;;;;;;1.50;1.15;;;15.00;99.90;;;;;;4947817;28;20239;-67
2021/08/26 00:18:24;;;;;;;1.30;1.15;;;15.00;99.90;;;;;;4956658;28;20216;-68
2021/08/26 00:20:53;;;;;;;3.20;1.17;;;15.00;99.90;;;;;;4967914;28;20217;-67
2021/08/26 00:23:21;;;;;;;1.67;1.30;;;15.10;99.90;;;;;;4953284;28;20225;-69
2021/08/26 00:25:47;;;;;;;2.28;1.40;;;15.10;99.90;;;;;;4951608;28;20200;-67
2021/08/26 00:28:12;;;;;;;2.08;1.10;;;15.00;99.90;;;;;;4951025;28;20216;-68
2021/08/26 00:30:38;;;;;;;2.00;1.42;;;15.00;99.90;;;;;;4951075;28;20227;-67
2021/08/26 00:33:05;;;;;;;2.63;1.60;;;15.00;99.90;;;;;;4960023;28;20189;-68
2021/08/26 00:35:30;;;;;;;2.45;1.30;;;15.00;99.90;;;;;;4960308;28;20268;-67
2021/08/26 00:37:57;;;;;;;2.10;1.42;;;15.00;99.90;;;;;;4951279;28;20299;-70
2021/08/26 00:40:23;;;;;;;3.58;1.40;;;15.00;99.90;;;;;;4957843;28;20182;-67
2021/08/26 00:42:49;;;;;;;2.30;1.35;;;15.00;99.90;;;;;;4958668;28;20188;-67
2021/08/26 00:45:14;;;;;;;1.67;1.25;;;14.90;99.90;;;;;;4952691;28;20231;-68
2021/08/26 00:47:44;;;;;;;3.13;1.48;;;14.90;99.90;;;;;;4954622;28;20221;-67
2021/08/26 00:50:10;;;;;;;2.58;1.42;;;14.90;99.90;;;;;;4954389;28;20554;-67
2021/08/26 00:52:38;;;;;;;2.35;1.60;;;14.90;99.90;;;;;;4952823;28;20280;-68
2021/08/26 00:55:08;;;;;;;2.92;1.27;;;14.90;99.90;;;;;;4953921;28;20184;-67
2021/08/26 00:57:37;;;;;;;3.65;1.45;;;14.90;99.90;;;;;;4955546;28;20213;-68
2021/08/26 01:00:06;;;;;;;2.17;1.27;;;14.90;99.90;;;;;;4949632;28;20236;-67
2021/08/26 01:02:59;;;;;;;3.40;1.52;;;14.90;99.90;;;;;;4950212;28;20240;-68
2021/08/26 01:05:31;;;;;;;3.83;1.52;;;14.90;99.90;;;;;;4949789;28;20668;-68
2021/08/26 01:08:08;;;;;;;3.45;1.40;;;14.90;99.90;;;;;;4957153;28;20220;-68
2021/08/26 01:10:35;;;;;;;3.45;1.50;;;14.90;99.90;;;;;;4955192;28;20615;-68
2021/08/26 01:13:02;;;;;;;2.42;1.50;;;14.90;99.90;;;;;;4950592;28;20220;-67
2021/08/26 01:15:28;;;;;;;3.88;1.58;;;14.90;99.90;;;;;;4949929;28;20231;-68
2021/08/26 01:17:55;;;;;;;2.20;1.40;;;14.90;99.90;;;;;;4949955;28;20240;-69
2021/08/26 01:20:22;;;;;;;3.03;1.70;;;14.90;99.90;;;;;;4948909;28;20272;-70
2021/08/26 01:22:48;;;;;;;4.70;1.88;;;14.80;99.90;;;;;;4951894;28;20189;-68
2021/08/26 01:25:18;;;;;;;2.63;1.75;;;14.90;99.90;;;;;;4946930;28;20205;-67
2021/08/26 01:27:58;;;;;;;2.90;1.50;;;14.80;99.90;;;;;;4952285;28;20211;-68
2021/08/26 01:30:29;;;;;;;2.60;1.58;;;14.80;99.90;;;;;;4958041;28;20648;-69
2021/08/26 01:32:58;;;;;;;1.92;1.30;;;14.80;99.90;;;;;;4953947;28;20605;-67
2021/08/26 01:35:27;;;;;;;1.70;1.50;;;14.80;99.90;;;;;;4954642;28;20200;-68
2021/08/26 01:37:54;;;;;;;4.65;1.95;;;14.90;99.90;;;;;;4973833;28;20209;-67
2021/08/26 01:40:52;;;;;;;5.45;1.60;;;14.80;99.90;;;;;;4961168;28;20228;-68
2021/08/26 01:43:23;;;;;;;5.95;1.75;;;14.80;99.90;;;;;;4917064;28;20201;-70
2021/08/26 01:45:49;;;;;;;4.07;1.40;;;14.90;99.90;;;;;;4957657;28;20200;-67
2021/08/26 01:48:16;;;;;;;3.10;1.48;;;14.80;99.90;;;;;;4954515;28;20202;-67
2021/08/26 01:50:46;;;;;;;4.03;1.90;;;14.80;99.90;;;;;;4953668;28;20193;-66
2021/08/26 01:53:12;;;;;;;3.22;2.03;;;14.70;99.90;;;;;;4958239;28;20227;-67
2021/08/26 01:55:41;;;;;;;3.63;1.63;;;14.70;99.90;;;;;;4970238;28;20660;-67
2021/08/26 01:58:10;;;;;;;4.63;1.70;;;14.70;99.90;;;;;;4956913;28;20213;-68
2021/08/26 02:00:36;;;;;;;4.05;2.20;;;14.70;99.90;;;;;;4949235;28;20186;-68
2021/08/26 02:03:01;;;;;;;4.95;2.22;;;14.70;99.90;;;;;;4951437;28;20543;-68
2021/08/26 02:05:27;;;;;;;3.33;1.48;;;14.70;99.90;;;;;;4949502;28;20194;-71
2021/08/26 02:07:54;;;;;;;4.75;1.90;;;14.70;99.90;;;;;;4952335;28;20661;-68
2021/08/26 02:10:20;;;;;;;5.05;1.75;;;14.70;99.90;;;;;;4961938;28;20292;-69
2021/08/26 02:12:46;;;;;;;5.75;2.00;;;14.70;99.90;;;;;;4946837;28;20189;-68
2021/08/26 02:15:12;;;;;;;5.00;2.35;;;14.70;99.90;;;;;;4947653;28;20529;-69
2021/08/26 02:17:38;;;;;;;4.30;2.33;;;14.70;99.90;;;;;;4946030;28;20228;-69
2021/08/26 02:20:05;;;;;;;4.70;1.65;;;14.70;99.90;;;;;;4952109;28;20189;-68
2021/08/26 02:22:31;;;;;;;5.88;2.17;;;14.80;99.90;;;;;;4945874;28;20673;-70
2021/08/26 02:24:57;;;;;;;4.72;1.90;;;14.80;99.90;;;;;;4952326;28;20190;-67
2021/08/26 02:27:22;;;;;;;4.70;1.75;;;14.70;99.90;;;;;;4954675;28;20218;-70
2021/08/26 02:29:48;;;;;;;3.25;1.73;;;14.70;99.90;;;;;;4946355;28;20194;-71
2021/08/26 02:32:14;;;;;;;5.07;2.10;;;14.80;99.90;;;;;;4962354;28;20197;-67
2021/08/26 02:34:39;;;;;;;7.28;2.30;;;14.70;99.90;;;;;;4952075;28;21030;-67
2021/08/26 02:37:07;;;;;;;9.23;2.50;;;14.80;99.90;;;;;;4945715;28;20225;-68
2021/08/26 02:39:34;;;;;;;4.50;2.08;;;14.70;99.90;;;;;;4949803;28;20176;-69
2021/08/26 02:42:00;;;;;;;5.40;1.75;;;14.80;99.90;;;;;;4946804;28;20192;-69
2021/08/26 02:44:26;;;;;;;6.75;2.50;;;14.70;99.90;;;;;;4960059;28;20675;-68
2021/08/26 02:46:51;;;;;;;5.10;1.63;;;14.70;99.90;;;;;;4945436;28;20322;-69
2021/08/26 02:49:17;;;;;;;4.45;1.95;;;14.70;99.90;;;;;;4947227;28;20202;-68
2021/08/26 02:51:43;;;;;;;6.53;2.22;;;14.70;99.90;;;;;;4949136;28;20736;-66
2021/08/26 02:54:08;;;;;;;2.47;1.92;;;14.70;99.90;;;;;;4944880;28;20189;-70
2021/08/26 02:56:34;;;;;;;5.20;2.05;;;14.70;99.90;;;;;;4948263;28;20260;-68
2021/08/26 02:59:00;;;;;;;2.92;1.45;;;14.70;99.90;;;;;;4947570;28;20185;-67
2021/08/26 03:01:25;;;;;;;6.70;2.08;;;14.70;99.90;;;;;;4958485;28;20296;-69
2021/08/26 03:03:51;;;;;;;4.88;1.90;;;14.70;99.90;;;;;;4954034;28;20233;-68
2021/08/26 03:06:16;;;;;;;6.10;1.83;;;14.80;99.90;;;;;;4951054;28;20597;-67
2021/08/26 03:08:42;;;;;;;5.47;2.70;;;14.80;99.90;;;;;;4956167;28;20189;-67
2021/08/26 03:11:10;;;;;;;4.75;2.70;;;14.70;99.90;;;;;;4952710;28;20649;-69
2021/08/26 03:13:36;;;;;;;4.88;2.22;;;14.70;99.90;;;;;;4955042;28;20641;-67
2021/08/26 03:16:03;;;;;;;6.38;2.00;;;14.70;99.90;;;;;;4951822;28;20292;-68
2021/08/26 03:18:28;;;;;;;5.82;2.13;;;14.70;99.90;;;;;;4955775;28;20284;-68
2021/08/26 03:20:54;;;;;;;5.03;2.17;;;14.70;99.90;;;;;;4954009;28;20264;-69
2021/08/26 03:23:19;;;;;;;4.90;2.20;;;14.70;99.90;;;;;;4961146;28;20243;-68
2021/08/26 03:25:45;;;;;;;7.00;2.33;;;14.70;99.90;;;;;;4951992;28;20529;-68
2021/08/26 03:28:11;;;;;;;4.22;1.70;;;14.70;99.90;;;;;;4958908;28;20193;-67
2021/08/26 03:30:37;;;;;;;3.15;1.85;;;14.70;99.90;;;;;;4956823;28;20203;-69
2021/08/26 03:33:02;;;;;;;6.20;2.28;;;14.70;99.90;;;;;;4947748;28;20193;-67
2021/08/26 03:35:28;;;;;;;6.93;2.40;;;14.70;99.90;;;;;;4953428;28;20204;-68
2021/08/26 03:37:54;;;;;;;6.10;2.13;;;14.70;99.90;;;;;;4959358;28;20202;-68
2021/08/26 03:40:19;;;;;;;5.10;2.38;;;14.70;99.90;;;;;;4959818;28;20744;-70
2021/08/26 03:42:45;;;;;;;5.43;2.22;;;14.70;99.90;;;;;;4953179;28;20268;-71
2021/08/26 03:45:11;;;;;;;5.82;2.53;;;14.70;99.90;;;;;;4957279;28;20191;-68
2021/08/26 03:47:37;;;;;;;5.38;2.33;;;14.70;99.90;;;;;;4951617;28;20228;-68
2021/08/26 03:50:03;;;;;;;4.68;2.22;;;14.60;99.90;;;;;;4957883;28;20194;-69
2021/08/26 03:52:28;;;;;;;5.22;2.05;;;14.70;99.90;;;;;;4958537;28;20351;-70
2021/08/26 03:54:54;;;;;;;3.63;1.70;;;14.60;99.90;;;;;;4957863;28;20189;-67
2021/08/26 03:57:19;;;;;;;5.32;1.92;;;14.60;99.90;;;;;;4954118;28;20217;-68
2021/08/26 03:59:45;;;;;;;3.28;2.17;;;14.60;99.90;;;;;;4952956;28;20276;-68
2021/08/26 04:02:10;;;;;;;4.50;2.35;;;14.70;99.90;;;;;;4961724;28;20683;-69
2021/08/26 04:04:36;;;;;;;4.80;2.33;;;14.70;99.90;;;;;;4954543;28;20190;-71
2021/08/26 04:07:02;;;;;;;4.65;1.90;;;14.70;99.90;;;;;;4958097;28;20244;-68
2021/08/26 04:09:28;;;;;;;4.38;2.35;;;14.70;99.90;;;;;;4955739;28;20236;-68
2021/08/26 04:11:53;;;;;;;4.05;1.90;;;14.70;99.90;;;;;;4951707;28;20189;-67
2021/08/26 04:14:19;;;;;;;9.90;2.90;;;14.60;99.90;;;;;;4956485;28;20676;-68
2021/08/26 04:16:44;;;;;;;4.68;2.25;;;14.60;99.90;;;;;;4955804;28;20214;-71
2021/08/26 04:19:10;;;;;;;5.80;2.33;;;14.60;99.90;;;;;;4970428;28;20599;-71
2021/08/26 04:21:36;;;;;;;4.82;1.83;;;14.50;99.90;;;;;;4951114;28;20190;-69
2021/08/26 04:24:02;;;;;;;4.03;1.65;;;14.50;99.90;;;;;;4951783;28;20185;-68
2021/08/26 04:26:27;;;;;;;6.45;2.05;;;14.50;99.90;;;;;;4953691;28;20213;-67
2021/08/26 04:28:53;;;;;;;3.97;2.03;;;14.60;99.90;;;;;;4954682;28;20535;-71
2021/08/26 04:31:18;;;;;;;4.25;2.65;;;14.60;99.90;;;;;;4960960;28;20239;-67
2021/08/26 04:33:44;;;;;;;3.05;1.85;;;14.60;99.90;;;;;;4954578;28;20188;-68
2021/08/26 04:36:09;;;;;;;4.00;2.00;;;14.60;99.90;;;;;;4957386;28;20556;-68
2021/08/26 04:38:35;;;;;;;5.00;2.05;;;14.60;99.90;;;;;;4955251;28;20274;-67
2021/08/26 04:41:01;;;;;;;5.22;1.92;;;14.60;99.90;;;;;;4952198;28;20209;-67
2021/08/26 04:43:26;;;;;;;5.47;2.28;;;14.70;99.90;;;;;;4950079;28;20196;-68
2021/08/26 04:45:52;;;;;;;4.70;1.98;;;14.60;99.90;;;;;;4956609;28;20535;-70
2021/08/26 04:48:17;;;;;;;3.70;1.83;;;14.60;99.90;;;;;;4952334;28;20209;-71
2021/08/26 04:50:43;;;;;;;4.28;2.65;;;14.50;99.90;;;;;;4950705;28;20243;-67
2021/08/26 04:53:08;;;;;;;5.95;2.03;;;14.60;99.90;;;;;;4954994;28;20228;-68
2021/08/26 04:55:34;;;;;;;5.03;2.42;;;14.60;99.90;;;;;;4958193;28;20200;-69
2021/08/26 04:57:59;;;;;;;6.47;2.10;;;14.60;99.90;;;;;;4951025;28;20221;-68
2021/08/26 05:00:25;;;;;;;5.55;2.30;;;14.70;99.90;;;;;;4954172;28;20177;-70
2021/08/26 05:02:51;;;;;;;6.72;2.65;;;14.70;99.90;;;;;;4956275;28;20245;-68
2021/08/26 05:05:17;;;;;;;5.05;2.15;;;14.60;99.90;;;;;;4952500;28;20264;-69
2021/08/26 05:07:42;;;;;;;5.93;2.25;;;14.60;99.90;;;;;;4957801;28;20209;-69
2021/08/26 05:10:08;;;;;;;7.70;2.22;;;14.60;99.90;;;;;;4957208;28;20275;-70
2021/08/26 05:12:34;;;;;;;4.40;1.92;;;14.70;99.90;;;;;;4956086;28;20193;-67
2021/08/26 05:15:00;;;;;;;6.88;2.65;;;14.70;99.90;;;;;;4947083;28;20332;-68
2021/08/26 05:17:26;;;;;;;3.97;1.65;;;14.70;99.90;;;;;;4955032;28;20295;-68
2021/08/26 05:19:51;;;;;;;6.68;2.13;;;14.70;99.90;;;;;;4952915;28;20181;-70
2021/08/26 05:22:17;;;;;;;5.18;2.53;;;14.70;99.90;;;;;;4953530;28;20602;-69
2021/08/26 05:24:43;;;;;;;4.18;2.40;;;14.70;99.90;;;;;;4947367;28;20649;-69
2021/08/26 05:27:08;;;;;;;5.13;2.05;;;14.70;99.90;;;;;;4953143;28;20655;-69
2021/08/26 05:29:34;;;;;;;5.85;3.20;;;14.70;99.90;;;;;;4953928;28;20228;-69
2021/08/26 05:31:59;;;;;;;6.68;2.22;;;14.80;99.90;;;;;;4948806;28;20569;-69
2021/08/26 05:34:25;;;;;;;5.75;2.40;;;14.90;99.90;;;;;;4952826;28;20251;-69
2021/08/26 05:36:51;;;;;;;5.82;2.60;;;14.90;99.90;;;;;;4951132;28;20205;-69
2021/08/26 05:39:17;;;;;;;6.10;1.83;;;15.00;99.90;;;;;;4949677;28;20949;-68
2021/08/26 05:41:44;;;;;;;4.00;1.75;;;15.10;99.90;;;;;;4956304;28;20251;-69
2021/08/26 05:44:14;;;;;;;7.40;2.75;;;15.20;99.90;;;;;;4951274;28;20549;-70
2021/08/26 05:46:40;;;;;;;7.82;2.90;;;15.20;99.90;;;;;;4952226;28;20252;-68
2021/08/26 05:49:06;;;;;;;4.93;1.80;;;15.20;99.90;;;;;;4947783;28;20756;-68
2021/08/26 05:51:31;;;;;;;4.40;2.10;;;15.20;99.90;;;;;;4957555;28;20283;-71
2021/08/26 05:53:57;;;;;;;6.93;2.17;;;15.20;99.90;;;;;;4949180;28;20553;-68
2021/08/26 05:56:23;;;;;;;5.35;2.25;;;15.20;99.90;;;;;;4956939;28;20215;-68
2021/08/26 05:58:48;;;;;;;9.23;2.58;;;15.40;99.90;;;;;;4951213;28;20185;-68
2021/08/26 06:01:14;;;;;;;8.30;2.22;;;15.40;99.90;;;;;;4954453;28;20189;-70
2021/08/26 06:03:39;;;;;;;9.35;2.95;;;15.40;99.90;;;;;;4955319;28;20181;-68
2021/08/26 06:06:05;;;;;;;6.35;2.30;;;15.30;99.90;;;;;;4952237;28;20618;-68
2021/08/26 06:08:31;;;;;;;3.53;2.30;;;15.40;99.90;;;;;;4955077;28;20192;-72
2021/08/26 06:10:56;;;;;;;6.57;2.03;;;15.50;99.90;;;;;;4952419;28;20590;-67
2021/08/26 06:13:22;;;;;;;6.57;1.73;;;15.40;99.90;;;;;;4953798;28;20495;-69
2021/08/26 06:15:48;;;;;;;4.85;2.10;;;15.40;99.90;;;;;;4950896;28;20181;-70
2021/08/26 06:18:15;;;;;;;6.00;2.25;;;15.40;99.90;;;;;;4947627;28;20216;-69
2021/08/26 06:20:42;;;;;;;9.25;2.78;;;15.50;99.90;;;;;;4950885;28;20184;-67
2021/08/26 06:23:07;;;;;;;3.38;1.70;;;15.50;99.90;;;;;;4952719;28;20191;-67
2021/08/26 06:25:34;;;;;;;7.85;2.30;;;15.60;99.90;;;;;;4952491;28;20181;-67
2021/08/26 06:27:59;;;;;;;6.80;2.60;;;15.70;99.90;;;;;;4950348;28;20736;-69
2021/08/26 06:30:26;;;;;;;5.88;2.58;;;15.90;99.90;;;;;;4953109;28;20380;-71
2021/08/26 06:32:51;;;;;;;4.88;2.47;;;16.00;99.90;;;;;;4968422;28;20658;-70
2021/08/26 06:35:18;;;;;;;9.18;2.45;;;16.00;99.90;;;;;;4953456;28;20193;-72
2021/08/26 06:37:43;;;;;;;6.57;2.88;;;16.10;99.90;;;;;;4949766;28;20303;-67
2021/08/26 06:40:10;;;;;;;5.60;1.90;;;16.20;99.90;;;;;;4949696;28;20679;-69
2021/08/26 06:42:36;;;;;;;2.70;1.50;;;16.20;99.90;;;;;;4958810;28;20301;-70
2021/08/26 06:45:01;;;;;;;7.53;2.50;;;16.20;99.90;;;;;;4955041;28;20319;-70
2021/08/26 06:47:27;;;;;;;4.72;2.30;;;16.20;99.90;;;;;;4957201;28;20208;-72
2021/08/26 06:49:53;;;;;;;4.78;2.15;;;16.10;99.90;;;;;;4953889;28;20181;-68
2021/08/26 06:52:18;;;;;;;8.80;2.50;;;16.30;99.90;;;;;;4952781;28;20686;-71
2021/08/26 06:54:44;;;;;;;4.18;2.60;;;16.40;99.90;;;;;;4947238;28;20197;-69
2021/08/26 06:57:10;;;;;;;5.35;2.20;;;16.50;99.90;;;;;;4953530;28;20236;-71
2021/08/26 06:59:35;;;;;;;4.07;2.00;;;16.50;99.90;;;;;;4952281;28;20256;-70
2021/08/26 07:02:01;;;;;;;5.72;2.40;;;16.60;99.90;;;;;;4952727;28;20189;-68
2021/08/26 07:04:27;;;;;;;6.72;2.38;;;16.70;99.90;;;;;;4948325;28;20198;-68
2021/08/26 07:06:56;;;;;;;6.15;2.55;;;16.90;99.90;;;;;;4956566;28;20237;-68
2021/08/26 07:09:22;;;;;;;6.03;2.67;;;17.10;99.90;;;;;;4952619;28;20197;-69
2021/08/26 07:11:48;;;;;;;10.85;3.05;;;17.10;99.90;;;;;;4956498;28;20225;-69
2021/08/26 07:14:14;;;;;;;4.32;2.40;;;17.00;99.90;;;;;;4953112;28;20612;-69
2021/08/26 07:16:40;;;;;;;4.85;2.17;;;16.90;99.90;;;;;;4958915;28;20295;-68
2021/08/26 07:19:06;;;;;;;3.03;1.85;;;16.80;99.90;;;;;;4956004;28;20306;-70
2021/08/26 07:21:32;;;;;;;6.05;3.08;;;16.70;99.90;;;;;;4957499;28;20660;-70
2021/08/26 07:23:57;;;;;;;4.68;2.55;;;16.90;99.90;;;;;;4956205;28;20217;-69
2021/08/26 07:26:23;;;;;;;5.55;2.08;;;17.10;99.90;;;;;;4948681;28;20232;-68
2021/08/26 07:28:51;;;;;;;7.10;3.03;;;17.10;99.90;;;;;;4952110;28;20208;-70
2021/08/26 07:31:17;;;;;;;5.90;2.53;;;17.20;99.90;;;;;;4952566;28;20464;-67
2021/08/26 07:33:42;;;;;;;2.92;2.33;;;17.00;99.90;;;;;;4948482;28;20654;-69
2021/08/26 07:36:08;;;;;;;8.63;2.20;;;16.90;99.90;;;;;;4957777;28;20216;-66
2021/08/26 07:38:34;;;;;;;7.00;3.00;;;16.90;99.90;;;;;;4946587;28;20549;-69
2021/08/26 07:40:59;;;;;;;5.95;3.47;;;16.80;99.90;;;;;;4957624;28;20224;-68
2021/08/26 07:43:30;;;;;;;6.45;3.15;;;16.60;99.90;;;;;;4959633;28;20185;-69
2021/08/26 07:45:56;;;;;;;5.88;2.95;;;16.60;99.90;;;;;;4951219;28;20232;-70
2021/08/26 07:48:22;;;;;;;9.73;2.90;;;16.80;99.90;;;;;;4971059;28;20284;-68
2021/08/26 07:50:48;;;;;;;7.63;2.75;;;17.10;99.90;;;;;;4950645;28;20790;-69
2021/08/26 07:53:15;;;;;;;5.78;2.60;;;17.20;99.90;;;;;;4955907;28;20190;-68
2021/08/26 07:55:40;;;;;;;4.38;2.80;;;17.30;99.90;;;;;;4968608;28;20866;-68
2021/08/26 07:58:06;;;;;;;5.72;2.40;;;17.40;99.90;;;;;;4953553;28;20225;-68
2021/08/26 08:00:32;;;;;;;6.50;3.20;;;17.40;99.90;;;;;;4954450;28;20192;-70
2021/08/26 08:02:57;;;;;;;5.05;2.78;;;17.50;99.90;;;;;;4954294;28;20184;-69
2021/08/26 08:05:23;;;;;;;3.97;2.10;;;17.60;99.90;;;;;;4946138;28;20192;-69
2021/08/26 08:07:49;;;;;;;4.00;2.53;;;17.60;99.90;;;;;;4946447;28;20291;-69
2021/08/26 08:10:15;;;;;;;4.07;2.50;;;17.70;99.90;;;;;;4947714;28;20214;-69
2021/08/26 08:12:41;;;;;;;3.58;2.47;;;18.00;99.90;;;;;;4946985;28;20193;-72
2021/08/26 08:15:08;;;;;;;3.60;2.17;;;18.30;99.90;;;;;;4951155;28;20203;-69
2021/08/26 08:17:34;;;;;;;5.95;2.50;;;18.70;99.90;;;;;;4957782;28;20216;-70
2021/08/26 08:19:59;;;;;;;7.18;2.72;;;18.50;99.90;;;;;;4952859;28;20292;-68
2021/08/26 08:22:25;;;;;;;4.63;2.05;;;18.70;99.90;;;;;;4948165;28;20268;-69
2021/08/26 08:24:51;;;;;;;5.22;2.03;;;18.90;99.90;;;;;;4946840;28;20185;-68
2021/08/26 08:27:16;;;;;;;5.38;1.88;;;19.10;99.90;;;;;;4948711;28;21304;-68
2021/08/26 08:29:42;;;;;;;5.15;2.10;;;19.10;99.90;;;;;;4958040;28;20275;-69
2021/08/26 08:32:08;;;;;;;4.10;1.90;;;19.10;99.90;;;;;;4954693;28;20240;-69
2021/08/26 08:34:33;;;;;;;3.25;2.30;;;19.10;99.90;;;;;;4953297;28;20574;-68
2021/08/26 08:37:02;;;;;;;3.72;1.75;;;18.90;99.90;;;;;;4952888;28;20217;-70
2021/08/26 08:39:28;;;;;;;6.50;2.50;;;18.90;99.90;;;;;;4950731;28;20645;-69
2021/08/26 08:41:53;;;;;;;4.07;2.03;;;18.80;99.90;;;;;;4956319;28;20192;-69
2021/08/26 08:44:19;;;;;;;5.30;2.47;;;18.90;99.90;;;;;;4963148;28;20190;-68
2021/08/26 08:46:48;;;;;;;5.10;2.25;;;18.90;99.90;;;;;;4947909;28;20255;-69
2021/08/26 08:49:18;;;;;;;4.28;2.38;;;18.80;99.90;;;;;;4956264;28;20205;-68
2021/08/26 08:51:44;;;;;;;5.13;1.88;;;18.70;99.90;;;;;;4951118;28;20184;-70
2021/08/26 08:54:09;;;;;;;4.13;2.28;;;18.50;99.90;;;;;;4955299;28;20195;-68
2021/08/26 08:56:35;;;;;;;4.22;2.03;;;18.30;99.90;;;;;;4951089;28;20634;-70
2021/08/26 08:59:03;;;;;;;4.10;2.45;;;18.20;99.90;;;;;;4956872;28;20228;-68
2021/08/26 09:01:29;;;;;;;2.13;1.80;;;18.20;99.90;;;;;;4957526;28;20188;-68
2021/08/26 09:03:55;;;;;;;4.32;1.80;;;18.20;99.90;;;;;;4947752;28;20268;-69
2021/08/26 09:06:21;;;;;;;4.15;2.60;;;18.00;99.90;;;;;;4952919;28;20304;-68
2021/08/26 09:09:07;;;;;;;5.93;2.38;;;17.90;99.90;;;;;;4947927;28;20216;-68
2021/08/26 09:11:33;;;;;;;2.85;2.25;;;17.70;99.90;;;;;;4950270;28;20256;-69
2021/08/26 09:14:11;;;;;;;4.57;2.30;;;17.70;99.90;;;;;;4951708;28;20276;-71
2021/08/26 09:16:40;;;;;;;7.70;2.92;;;17.50;99.90;;;;;;4957024;28;20212;-68
2021/08/26 09:19:18;;;;;;;4.35;2.08;;;17.30;99.90;;;;;;4946810;28;20586;-70
2021/08/26 09:21:45;;;;;;;4.53;2.35;;;17.20;99.90;;;;;;4946878;28;20178;-69
2021/08/26 09:24:11;;;;;;;3.08;1.90;;;17.40;99.90;;;;;;4945923;28;20185;-69
2021/08/26 09:26:39;;;;;;;4.95;2.35;;;17.50;99.90;;;;;;4947085;28;20216;-67
2021/08/26 09:29:08;;;;;;;3.90;2.25;;;17.60;99.90;;;;;;4950237;28;20185;-68
2021/08/26 09:31:33;;;;;;;2.92;1.90;;;17.40;99.90;;;;;;4953496;28;20748;-68
2021/08/26 09:34:02;;;;;;;5.95;2.65;;;17.40;99.90;;;;;;4953815;28;20193;-68
2021/08/26 09:36:51;;;;;;;5.28;2.28;;;17.30;99.90;;;;;;4951160;28;20205;-69
2021/08/26 09:39:27;;;;;;;5.28;2.05;;;17.20;99.90;;;;;;4950872;28;20194;-70
2021/08/26 09:41:54;;;;;;;2.67;2.15;;;17.20;99.90;;;;;;4951657;28;20224;-70
2021/08/26 09:44:29;;;;;;;4.63;2.10;;;17.20;99.90;;;;;;4952276;28;20188;-70
2021/08/26 09:46:57;;;;;;;3.95;2.28;;;17.10;99.90;;;;;;4955234;28;20295;-69
2021/08/26 09:49:25;;;;;;;3.63;1.67;;;17.10;99.90;;;;;;4949542;28;20201;-70
2021/08/26 09:52:12;;;;;;;3.65;1.80;;;17.20;99.90;;;;;;4949722;28;20474;-69
2021/08/26 09:54:43;;;;;;;6.57;2.20;;;17.30;99.90;;;;;;4952700;28;20218;-70
2021/08/26 09:57:30;;;;;;;3.67;2.17;;;17.50;99.90;;;;;;4951721;28;20213;-68
2021/08/26 10:00:04;;;;;;;3.10;1.70;;;17.80;99.90;;;;;;4960847;28;20199;-70
2021/08/26 10:02:31;;;;;;;4.32;1.83;;;18.00;99.90;;;;;;4945377;28;20190;-69
2021/08/26 10:04:57;;;;;;;2.72;1.65;;;18.30;99.90;;;;;;4948403;28;20269;-70
2021/08/26 10:07:25;;;;;;;2.40;1.73;;;18.50;99.90;;;;;;4947728;28;20213;-69
2021/08/26 10:09:51;;;;;;;6.95;2.03;;;18.50;99.90;;;;;;4950399;28;20323;-69
2021/08/26 10:12:17;;;;;;;3.33;1.73;;;18.50;99.90;;;;;;4950146;28;20443;-69
2021/08/26 10:14:47;;;;;;;2.95;1.65;;;18.60;99.90;;;;;;4958250;28;21286;-71
2021/08/26 10:17:14;;;;;;;2.25;1.80;;;18.50;99.90;;;;;;4955719;28;20212;-68
2021/08/26 10:19:40;;;;;;;3.13;1.85;;;18.50;99.90;;;;;;4959481;28;20185;-69
2021/08/26 10:22:07;;;;;;;2.85;1.55;;;18.40;99.90;;;;;;4956348;28;20186;-68
2021/08/26 10:24:33;;;;;;;2.83;1.40;;;18.40;99.90;;;;;;4953091;28;20201;-68
2021/08/26 10:27:09;;;;;;;3.45;1.48;;;18.50;99.90;;;;;;4951593;28;20205;-68
2021/08/26 10:29:38;;;;;;;1.65;1.35;;;18.50;99.90;;;;;;4949500;28;20196;-69
2021/08/26 10:32:05;;;;;;;1.98;1.30;;;18.80;99.90;;;;;;4950092;28;20730;-68
2021/08/26 10:34:32;;;;;;;2.42;1.25;;;19.00;99.90;;;;;;4949070;28;20596;-69
2021/08/26 10:36:57;;;;;;;3.03;1.17;;;19.10;99.90;;;;;;4950594;28;20206;-70
2021/08/26 10:39:35;;;;;;;2.47;1.00;;;19.30;99.90;;;;;;4972800;28;20236;-70
2021/08/26 10:42:19;;;;;;;4.65;1.70;;;19.40;99.90;;;;;;4949699;28;20268;-69
2021/08/26 10:45:11;;;;;;;2.60;1.10;;;19.60;99.90;;;;;;4954337;28;20187;-69
2021/08/26 10:47:49;;;;;;;3.97;1.20;;;19.50;99.90;;;;;;4951549;28;20225;-67
2021/08/26 10:50:33;;;;;;;0.68;0.68;;;19.40;99.90;;;;;;4954470;28;20225;-67
2021/08/26 10:53:15;;;;;;;1.77;0.70;;;19.30;99.90;;;;;;4953784;28;20196;-67
2021/08/26 10:55:50;;;;;;;2.97;0.95;;;19.20;99.90;;;;;;4953450;28;20185;-69
2021/08/26 10:58:22;;;;;;;1.05;0.65;;;19.00;99.90;;;;;;4959915;28;20221;-69
2021/08/26 11:01:04;;;;;;;2.40;1.10;;;19.10;99.90;;;;;;4956152;28;20216;-66
2021/08/26 11:03:35;;;;;;;1.83;0.68;;;19.00;99.90;;;;;;4956497;28;20189;-70
2021/08/26 11:06:19;;;;;;;2.22;0.73;;;19.00;99.90;;;;;;4948617;28;20209;-69
2021/08/26 11:08:49;;;;;;;2.67;1.23;;;19.10;99.90;;;;;;4949096;28;20544;-68
2021/08/26 11:11:24;;;;;;;2.67;1.10;;;19.10;99.90;;;;;;4955887;28;20185;-68
2021/08/26 11:13:50;;;;;;;3.70;1.42;;;19.00;99.90;;;;;;4953610;28;20192;-69
2021/08/26 11:16:25;;;;;;;2.00;1.30;;;19.10;99.90;;;;;;4951200;28;21314;-68
2021/08/26 11:18:56;;;;;;;1.65;0.93;;;19.10;99.90;;;;;;4954706;28;20188;-68
2021/08/26 11:24:25;;;;;;;3.00;1.30;;;19.50;99.90;;;;;;4948380;28;20217;-67
2021/08/26 11:27:00;;;;;;;3.53;1.48;;;19.50;99.90;;;;;;4948999;28;20212;-68
2021/08/26 11:29:25;;;;;;;3.97;1.52;;;19.50;99.90;;;;;;4952173;28;20217;-70
2021/08/26 11:31:54;;;;;;;1.40;0.80;;;20.00;99.90;;;;;;4965026;28;20215;-68
2021/08/26 11:34:20;;;;;;;1.75;1.17;;;20.40;99.90;;;;;;4947728;28;20194;-68
2021/08/26 11:37:03;;;;;;;2.40;1.10;;;20.50;99.90;;;;;;4965083;28;20572;-67
2021/08/26 11:39:32;;;;;;;1.52;0.93;;;20.50;99.90;;;;;;4948241;28;20181;-69
2021/08/26 11:41:59;;;;;;;2.15;1.00;;;20.50;99.90;;;;;;4952405;28;20312;-68
2021/08/26 11:44:27;;;;;;;1.92;1.30;;;20.70;99.90;;;;;;4950738;28;20200;-69
2021/08/26 11:46:52;;;;;;;1.70;0.90;;;20.90;99.90;;;;;;4950661;28;20287;-68
2021/08/26 11:49:18;;;;;;;0.70;0.52;;;21.00;99.90;;;;;;4973448;28;20311;-68
2021/08/26 11:51:46;;;;;;;2.85;1.33;;;21.30;99.90;;;;;;4969972;28;20190;-69
2021/08/26 11:54:17;;;;;;;2.00;0.82;;;21.70;99.90;;;;;;4947291;28;20276;-70
2021/08/26 11:56:49;;;;;;;1.38;0.90;;;21.80;99.90;;;;;;4952641;28;20202;-69
2021/08/26 11:59:26;;;;;;;1.60;0.90;;;21.30;99.90;;;;;;4951665;28;20558;-71
2021/08/26 12:02:18;;;;;;;1.35;0.93;;;20.90;99.90;;;;;;4949305;28;20260;-70
2021/08/26 12:04:58;;;;;;;1.70;0.70;;;20.40;99.90;;;;;;4949640;28;20181;-70
2021/08/26 12:07:33;;;;;;;2.05;1.20;;;19.90;99.90;;;;;;4967321;28;20212;-69
2021/08/26 12:10:05;;;;;;;2.25;0.70;;;19.40;99.90;;;;;;4947815;28;21057;-70
2021/08/26 12:12:31;;;;;;;1.15;0.80;;;19.00;99.90;;;;;;4959502;28;20189;-69
2021/08/26 12:14:56;;;;;;;1.77;1.10;;;18.70;99.90;;;;;;4943809;28;20197;-70
2021/08/26 12:17:23;;;;;;;0.85;0.65;;;18.40;99.90;;;;;;4951188;28;20215;-68
2021/08/26 12:19:51;;;;;;;3.63;1.10;;;18.20;99.90;;;;;;4947887;28;20177;-68
2021/08/26 12:22:21;;;;;;;1.70;1.15;;;18.00;99.90;;;;;;4952771;28;20200;-69
2021/08/26 12:24:58;;;;;;;3.35;1.00;;;17.90;99.90;;;;;;4953482;28;20407;-68
2021/08/26 12:27:28;;;;;;;2.35;1.00;;;18.10;99.90;;;;;;4947368;28;20212;-69
2021/08/26 12:29:54;;;;;;;1.67;0.85;;;18.20;99.90;;;;;;4947864;28;20655;-71
2021/08/26 12:32:30;;;;;;;1.63;1.02;;;18.10;99.90;;;;;;4952187;28;20200;-69
2021/08/26 12:35:38;;;;;;;2.50;1.10;;;18.00;99.90;;;;;;4949091;28;20204;-68
2021/08/26 12:38:04;;;;;;;1.83;0.95;;;17.80;99.90;;;;;;4871556;29;20234;-70
2021/08/26 12:40:45;;;;;;;1.75;0.95;;;17.90;99.90;;;;;;4941378;28;20881;-70
2021/08/26 12:43:11;;;;;;;2.42;1.10;;;17.90;99.90;;;;;;4950863;28;20189;-70
2021/08/26 12:45:37;;;;;;;3.63;1.15;;;17.90;99.90;;;;;;4949559;28;20194;-67
2021/08/26 12:48:26;;;;;;;1.30;0.90;;;17.90;99.90;;;;;;4959804;28;20283;-69
2021/08/26 12:51:05;;;;;;;3.67;1.00;;;17.90;99.90;;;;;;4965639;28;20728;-69
2021/08/26 12:53:32;;;;;;;1.60;0.90;;;18.00;99.90;;;;;;4947782;28;20197;-70
2021/08/26 12:56:03;;;;;;;3.00;1.10;;;18.00;99.90;;;;;;4946152;28;20562;-69
2021/08/26 12:58:30;;;;;;;1.90;1.33;;;18.00;99.90;;;;;;4975207;28;20210;-69